Time;durP1;ratioP1;P1;durP2;ratioP2;P2;SDS_P1;SDS_P2;PMS_P1;PMS_P2;Temp;Humidity;BMP_temperature;BMP_pressure;BME280_temperature;BME280_humidity;BME280_pressure;Samples;Min_cycle;Max_cycle;Signal;HPM_P1;HPM_P2
2021/05/21 00:00:07;;;;;;;17.83;4.05;;;;;;;10.51;78.20;100589.88;693458;28;1097;-48
2021/05/21 00:00:28;;;;;;;17.60;3.90;;;;;;;10.48;78.87;100594.44;693597;28;1002;-51
2021/05/21 00:00:51;;;;;;;19.27;4.43;;;;;;;10.44;78.81;100593.72;693450;28;882;-48
2021/05/21 00:01:11;;;;;;;16.63;4.35;;;;;;;10.40;79.75;100598.28;693520;28;987;-49
2021/05/21 00:01:34;;;;;;;17.43;4.43;;;;;;;10.37;78.88;100582.59;693612;28;902;-48
2021/05/21 00:01:56;;;;;;;17.15;4.28;;;;;;;10.41;78.97;100586.81;693276;28;904;-49
2021/05/21 00:02:16;;;;;;;15.88;3.78;;;;;;;10.40;78.62;100577.19;693553;28;1051;-49
2021/05/21 00:02:36;;;;;;;17.67;3.73;;;;;;;10.39;79.53;100586.03;693473;28;880;-51
2021/05/21 00:03:01;;;;;;;17.90;4.23;;;;;;;10.38;79.58;100581.66;693469;28;970;-51
2021/05/21 00:03:21;;;;;;;18.65;3.75;;;;;;;10.37;79.04;100587.88;693421;28;1779;-48
2021/05/21 00:03:42;;;;;;;17.90;3.73;;;;;;;10.31;79.25;100592.56;693414;28;931;-47
2021/05/21 00:04:05;;;;;;;18.10;3.83;;;;;;;10.29;80.20;100592.63;693743;28;1128;-50
2021/05/21 00:04:27;;;;;;;18.85;4.28;;;;;;;10.31;80.30;100592.56;693415;28;934;-51
2021/05/21 00:05:08;;;;;;;21.50;4.22;;;;;;;10.31;79.97;100609.22;693488;28;883;-50
2021/05/21 00:05:28;;;;;;;18.35;4.35;;;;;;;10.25;79.44;100591.00;692558;28;1583;-49
2021/05/21 00:05:48;;;;;;;18.77;4.07;;;;;;;10.25;78.79;100603.31;693348;28;1005;-50
2021/05/21 00:06:09;;;;;;;19.50;3.93;;;;;;;10.23;79.02;100600.78;693365;28;780;-49
2021/05/21 00:06:29;;;;;;;20.48;4.10;;;;;;;10.19;79.52;100596.56;693248;28;824;-51
2021/05/21 00:06:52;;;;;;;19.13;4.53;;;;;;;10.15;80.16;100602.88;693111;28;1251;-48
2021/05/21 00:07:16;;;;;;;20.15;4.85;;;;;;;10.07;78.97;100597.09;692994;28;1594;-48
2021/05/21 00:07:36;;;;;;;18.75;4.00;;;;;;;10.07;79.22;100589.19;690776;28;869;-51
2021/05/21 00:07:56;;;;;;;16.27;3.87;;;;;;;10.05;79.82;100591.03;690825;28;999;-51
2021/05/21 00:08:17;;;;;;;19.77;4.33;;;;;;;10.06;80.24;100598.03;690729;28;804;-48
2021/05/21 00:08:37;;;;;;;21.93;4.30;;;;;;;10.06;80.82;100587.50;690975;28;1511;-49
2021/05/21 00:08:57;;;;;;;21.02;4.10;;;;;;;10.03;80.23;100580.56;693485;28;930;-51
2021/05/21 00:09:18;;;;;;;19.30;3.97;;;;;;;10.08;80.51;100580.34;693366;28;987;-50
2021/05/21 00:09:38;;;;;;;21.23;4.40;;;;;;;10.08;80.11;100588.25;693498;28;810;-48
2021/05/21 00:10:01;;;;;;;18.80;4.13;;;;;;;10.14;79.22;100580.94;693332;28;1003;-48
2021/05/21 00:10:21;;;;;;;17.20;3.88;;;;;;;10.16;79.55;100586.16;693538;28;867;-50
2021/05/21 00:10:43;;;;;;;16.20;3.50;;;;;;;10.18;79.31;100581.66;693412;28;839;-48
2021/05/21 00:11:06;;;;;;;18.40;3.80;;;;;;;10.16;79.47;100584.38;693418;28;1021;-51
2021/05/21 00:11:26;;;;;;;17.33;4.10;;;;;;;10.11;79.86;100577.59;693536;28;906;-51
2021/05/21 00:11:46;;;;;;;17.20;3.87;;;;;;;10.11;79.39;100581.06;693955;28;852;-50
2021/05/21 00:12:07;;;;;;;17.83;4.07;;;;;;;10.07;79.04;100578.66;694022;28;1042;-47
2021/05/21 00:12:27;;;;;;;18.67;4.38;;;;;;;10.06;78.80;100579.59;693866;28;1102;-48
2021/05/21 00:12:48;;;;;;;17.83;3.90;;;;;;;10.06;79.00;100576.97;693879;28;912;-48
2021/05/21 00:13:08;;;;;;;17.53;4.03;;;;;;;10.06;79.70;100579.59;693905;28;1589;-49
2021/05/21 00:13:28;;;;;;;19.47;4.30;;;;;;;10.04;79.29;100579.63;693949;28;891;-47
2021/05/21 00:13:49;;;;;;;18.33;3.97;;;;;;;10.03;78.87;100571.81;693884;28;986;-50
2021/05/21 00:14:09;;;;;;;20.97;4.27;;;;;;;9.99;79.65;100577.22;694012;28;895;-50
2021/05/21 00:14:29;;;;;;;19.40;3.53;;;;;;;9.98;79.35;100574.66;693857;28;805;-51
2021/05/21 00:14:52;;;;;;;16.77;4.35;;;;;;;10.03;79.21;100582.34;693998;28;1009;-50
2021/05/21 00:15:13;;;;;;;16.55;4.05;;;;;;;9.97;79.00;100579.03;693913;28;1347;-49
2021/05/21 00:15:33;;;;;;;18.27;4.00;;;;;;;10.01;79.29;100571.88;693962;28;1098;-50
2021/05/21 00:15:53;;;;;;;20.33;4.30;;;;;;;9.99;79.56;100566.69;693972;28;1044;-52
2021/05/21 00:16:17;;;;;;;20.07;4.20;;;;;;;10.01;79.20;100573.66;693897;28;1016;-48
2021/05/21 00:16:39;;;;;;;19.17;4.32;;;;;;;9.98;79.34;100572.88;693999;28;892;-48
2021/05/21 00:17:00;;;;;;;16.70;4.00;;;;;;;9.97;79.53;100567.66;693940;28;829;-48
2021/05/21 00:17:20;;;;;;;22.05;4.47;;;;;;;9.93;79.99;100564.31;693881;28;1009;-49
2021/05/21 00:17:43;;;;;;;19.83;4.03;;;;;;;9.93;80.65;100569.56;694086;28;880;-49
2021/05/21 00:18:04;;;;;;;18.23;4.38;;;;;;;9.93;79.98;100566.94;693972;28;816;-51
2021/05/21 00:18:24;;;;;;;16.55;3.90;;;;;;;9.95;80.57;100580.06;693600;28;1006;-49
2021/05/21 00:18:48;;;;;;;16.83;3.63;;;;;;;10.05;79.49;100572.59;693766;28;745;-50
2021/05/21 00:19:08;;;;;;;17.48;4.22;;;;;;;10.02;80.07;100580.66;693689;28;1647;-51
2021/05/21 00:19:31;;;;;;;18.73;4.05;;;;;;;10.07;79.13;100578.66;693880;28;995;-47
2021/05/21 00:19:52;;;;;;;18.60;4.50;;;;;;;10.09;79.65;100577.69;694018;28;915;-49
2021/05/21 00:20:12;;;;;;;18.60;4.23;;;;;;;10.05;79.60;100575.22;694068;28;981;-49
2021/05/21 00:20:33;;;;;;;18.38;4.32;;;;;;;10.02;78.72;100578.03;693925;28;1020;-50
2021/05/21 00:20:56;;;;;;;19.57;4.07;;;;;;;9.94;79.18;100584.47;693837;28;1046;-51
2021/05/21 00:21:19;;;;;;;22.02;4.55;;;;;;;9.94;79.44;100579.22;694054;28;828;-52
2021/05/21 00:21:39;;;;;;;18.05;4.07;;;;;;;9.92;79.37;100573.16;693949;28;884;-50
2021/05/21 00:22:02;;;;;;;19.57;4.37;;;;;;;10.02;79.61;100578.03;693960;28;840;-48
2021/05/21 00:22:23;;;;;;;19.88;4.32;;;;;;;10.03;79.50;100562.13;693894;28;1097;-52
2021/05/21 00:22:43;;;;;;;19.92;4.40;;;;;;;10.02;79.62;100557.81;693832;28;955;-50
2021/05/21 00:23:03;;;;;;;21.03;4.40;;;;;;;10.03;79.73;100570.03;693950;28;800;-52
2021/05/21 00:23:26;;;;;;;18.77;4.37;;;;;;;10.06;79.20;100550.63;694073;28;809;-51
2021/05/21 00:23:46;;;;;;;21.95;4.68;;;;;;;9.98;79.79;100549.19;693831;28;1014;-52
2021/05/21 00:24:07;;;;;;;21.77;4.40;;;;;;;9.97;79.92;100557.13;693955;28;931;-48
2021/05/21 00:24:27;;;;;;;20.37;4.23;;;;;;;10.05;79.66;100549.78;693864;28;1360;-50
2021/05/21 00:24:48;;;;;;;21.85;4.47;;;;;;;10.02;79.96;100552.53;693937;28;871;-49
2021/05/21 00:25:08;;;;;;;18.70;4.53;;;;;;;10.05;79.66;100559.44;693974;28;889;-49
2021/05/21 00:25:28;;;;;;;18.95;4.28;;;;;;;10.08;79.58;100551.41;693830;28;1302;-50
2021/05/21 00:25:49;;;;;;;20.53;4.40;;;;;;;10.06;79.55;100556.75;693955;28;959;-49
2021/05/21 00:26:10;;;;;;;20.48;4.45;;;;;;;10.05;79.38;100557.69;693998;28;929;-50
2021/05/21 00:26:30;;;;;;;22.23;4.40;;;;;;;10.01;78.96;100557.84;693902;28;830;-51
2021/05/21 00:26:50;;;;;;;20.50;4.13;;;;;;;10.03;79.29;100543.72;693930;28;898;-48
2021/05/21 00:27:13;;;;;;;20.42;4.55;;;;;;;9.97;79.49;100541.34;693460;28;1515;-48
2021/05/21 00:27:34;;;;;;;21.65;4.72;;;;;;;10.00;79.91;100551.75;693954;28;1006;-48
2021/05/21 00:27:54;;;;;;;18.83;4.47;;;;;;;9.97;80.28;100550.09;693899;28;812;-47
2021/05/21 00:28:15;;;;;;;21.40;4.47;;;;;;;9.93;80.70;100551.16;693916;28;823;-49
2021/05/21 00:28:37;;;;;;;23.87;4.50;;;;;;;9.90;80.54;100538.13;693500;28;1467;-52
2021/05/21 00:28:58;;;;;;;20.92;4.35;;;;;;;9.85;80.09;100548.00;693799;28;1030;-50
2021/05/21 00:29:18;;;;;;;21.90;4.82;;;;;;;9.85;79.82;100541.88;693687;28;1440;-51
2021/05/21 00:29:38;;;;;;;23.47;4.83;;;;;;;9.86;79.79;100544.44;694061;28;1121;-48
2021/05/21 00:29:59;;;;;;;22.48;5.15;;;;;;;9.88;80.05;100537.34;693601;28;887;-49
2021/05/21 00:30:19;;;;;;;20.47;4.70;;;;;;;9.92;80.90;100543.34;693837;28;911;-50
2021/05/21 00:30:40;;;;;;;20.95;4.53;;;;;;;9.87;80.95;100545.28;693552;28;1531;-51
2021/05/21 00:31:00;;;;;;;21.10;4.80;;;;;;;9.86;81.24;100554.13;693590;28;837;-49
2021/05/21 00:31:20;;;;;;;23.07;5.00;;;;;;;9.85;80.98;100541.88;693837;28;820;-50
2021/05/21 00:31:40;;;;;;;19.38;4.53;;;;;;;9.82;80.76;100542.03;693835;28;816;-52
2021/05/21 00:32:01;;;;;;;17.97;4.53;;;;;;;9.78;80.84;100541.31;693832;28;1013;-47
2021/05/21 00:32:21;;;;;;;21.60;4.77;;;;;;;9.79;81.14;100543.00;694015;28;864;-51
2021/05/21 00:32:41;;;;;;;22.30;4.60;;;;;;;9.76;81.42;100553.66;693784;28;1076;-52
2021/05/21 00:33:05;;;;;;;21.80;4.70;;;;;;;9.76;81.63;100543.13;693537;28;1432;-50
2021/05/21 00:33:25;;;;;;;21.88;4.80;;;;;;;9.82;81.63;100542.03;693969;28;844;-48
2021/05/21 00:33:49;;;;;;;23.00;5.07;;;;;;;9.87;80.70;100551.41;693335;28;1330;-49
2021/05/21 00:34:12;;;;;;;21.33;4.90;;;;;;;9.82;81.06;100557.81;693997;28;878;-51
2021/05/21 00:34:32;;;;;;;20.10;4.25;;;;;;;9.75;80.92;100559.84;693794;28;858;-50
2021/05/21 00:34:55;;;;;;;23.43;4.70;;;;;;;9.76;81.59;100551.03;693867;28;969;-48
2021/05/21 00:35:15;;;;;;;23.73;5.00;;;;;;;9.81;81.32;100558.75;693718;28;1894;-49
2021/05/21 00:35:36;;;;;;;22.77;4.87;;;;;;;9.81;81.47;100543.81;693888;28;848;-51
2021/05/21 00:35:56;;;;;;;22.80;4.90;;;;;;;9.80;81.74;100544.69;693913;28;1006;-49
2021/05/21 00:36:19;;;;;;;22.33;5.00;;;;;;;9.77;81.60;100544.84;693891;28;907;-50
2021/05/21 00:36:40;;;;;;;22.83;4.70;;;;;;;9.74;81.06;100551.09;693868;28;948;-52
2021/05/21 00:37:00;;;;;;;24.53;4.50;;;;;;;9.81;81.20;100551.69;693825;28;939;-51
2021/05/21 00:37:20;;;;;;;26.63;4.77;;;;;;;9.81;80.87;100546.44;693520;28;1511;-50
2021/05/21 00:37:40;;;;;;;21.30;4.55;;;;;;;9.84;80.44;100554.19;693894;28;1471;-51
2021/05/21 00:38:02;;;;;;;19.23;4.23;;;;;;;9.86;80.55;100551.50;693983;28;877;-48
2021/05/21 00:38:31;;;;;;;22.23;4.60;;;;;;;9.88;80.59;100542.63;693757;28;1306;-49
2021/05/21 00:38:52;;;;;;;21.20;4.35;;;;;;;9.89;80.03;100539.06;693592;28;1495;-52
2021/05/21 00:39:12;;;;;;;21.20;4.23;;;;;;;9.92;79.89;100549.44;693721;28;899;-52
2021/05/21 00:39:32;;;;;;;21.20;4.40;;;;;;;9.90;80.27;100538.13;693964;28;1010;-51
2021/05/21 00:39:53;;;;;;;19.90;4.37;;;;;;;9.88;80.36;100541.75;694324;28;928;-50
2021/05/21 00:40:13;;;;;;;23.27;4.80;;;;;;;9.87;80.47;100551.41;693985;28;819;-50
2021/05/21 00:40:34;;;;;;;20.98;4.50;;;;;;;9.85;80.44;100558.53;694030;28;1057;-52
2021/05/21 00:40:54;;;;;;;20.05;4.10;;;;;;;9.83;80.55;100539.31;693883;28;818;-51
2021/05/21 00:41:14;;;;;;;21.77;4.77;;;;;;;9.85;80.68;100547.16;693931;28;1086;-49
2021/05/21 00:41:35;;;;;;;21.37;4.53;;;;;;;9.84;80.27;100553.31;694000;28;870;-49
2021/05/21 00:41:55;;;;;;;19.85;4.40;;;;;;;9.84;80.48;100556.84;693919;28;998;-48
2021/05/21 00:42:16;;;;;;;20.80;4.53;;;;;;;9.84;80.84;100548.94;693944;28;863;-50
2021/05/21 00:42:36;;;;;;;23.40;5.20;;;;;;;9.90;80.27;100539.91;693820;28;1581;-51
2021/05/21 00:42:56;;;;;;;21.03;4.70;;;;;;;9.89;79.97;100544.31;693641;28;1451;-49
2021/05/21 00:43:17;;;;;;;22.02;4.40;;;;;;;9.89;80.38;100544.31;693868;28;1037;-51
2021/05/21 00:43:37;;;;;;;22.40;4.67;;;;;;;9.88;80.93;100552.28;693970;28;837;-53
2021/05/21 00:43:57;;;;;;;19.70;4.27;;;;;;;9.96;80.02;100548.38;693945;28;981;-48
2021/05/21 00:44:18;;;;;;;21.40;4.70;;;;;;;9.97;80.40;100539.56;693861;28;938;-47
2021/05/21 00:44:43;;;;;;;21.93;5.07;;;;;;;9.91;80.06;100545.13;693887;28;986;-49
2021/05/21 00:45:07;;;;;;;23.48;5.18;;;;;;;9.93;79.94;100540.63;693766;28;909;-51
2021/05/21 00:45:27;;;;;;;21.25;4.78;;;;;;;9.92;80.25;100538.91;693818;28;1397;-49
2021/05/21 00:45:47;;;;;;;23.57;5.00;;;;;;;9.92;80.17;100545.97;693964;28;949;-49
2021/05/21 00:46:07;;;;;;;22.00;4.67;;;;;;;9.90;80.57;100540.75;694027;28;916;-48
2021/05/21 00:46:28;;;;;;;23.90;4.83;;;;;;;9.90;80.40;100540.75;693876;28;1048;-51
2021/05/21 00:46:49;;;;;;;21.83;4.88;;;;;;;9.94;80.24;100536.19;693938;28;899;-50
2021/05/21 00:47:09;;;;;;;23.33;4.88;;;;;;;9.95;80.88;100537.94;693861;28;824;-47
2021/05/21 00:47:29;;;;;;;22.70;4.47;;;;;;;9.91;81.40;100545.13;693865;28;796;-47
2021/05/21 00:47:52;;;;;;;20.03;4.47;;;;;;;9.92;81.25;100544.19;693914;28;933;-49
2021/05/21 00:48:13;;;;;;;20.85;4.55;;;;;;;9.95;80.96;100544.06;693878;28;918;-48
2021/05/21 00:48:33;;;;;;;21.20;4.73;;;;;;;9.93;81.23;100537.97;693424;28;1010;-49
2021/05/21 00:48:53;;;;;;;20.93;4.80;;;;;;;9.96;81.25;100535.22;693954;28;863;-51
2021/05/21 00:49:17;;;;;;;20.63;4.80;;;;;;;9.96;81.18;100539.63;693603;28;1420;-47
2021/05/21 00:49:37;;;;;;;21.45;4.82;;;;;;;9.97;80.63;100538.72;693828;28;912;-51
2021/05/21 00:49:58;;;;;;;22.23;4.77;;;;;;;9.95;80.73;100517.72;693846;28;958;-48
2021/05/21 00:50:18;;;;;;;22.93;4.53;;;;;;;10.02;79.44;100512.19;693777;28;1274;-49
2021/05/21 00:50:38;;;;;;;21.02;4.43;;;;;;;10.05;79.34;100538.34;693958;28;796;-48
2021/05/21 00:50:59;;;;;;;20.97;4.53;;;;;;;10.05;79.02;100527.81;693758;28;1018;-48
2021/05/21 00:51:19;;;;;;;22.87;4.53;;;;;;;10.03;79.68;100529.69;693758;28;970;-49
2021/05/21 00:51:40;;;;;;;23.42;5.07;;;;;;;10.02;79.96;100528.00;693945;28;959;-49
2021/05/21 00:52:03;;;;;;;24.90;5.37;;;;;;;10.00;80.36;100528.03;693812;28;863;-47
2021/05/21 00:52:26;;;;;;;22.25;5.65;;;;;;;9.99;80.17;100518.44;693931;28;1098;-47
2021/05/21 00:52:47;;;;;;;22.67;4.93;;;;;;;9.98;80.06;100522.84;693796;28;823;-46
2021/05/21 00:53:09;;;;;;;22.63;4.45;;;;;;;9.99;80.67;100518.44;693924;28;1065;-47
2021/05/21 00:53:31;;;;;;;22.13;4.93;;;;;;;9.95;80.63;100516.88;693888;28;955;-47
2021/05/21 00:53:52;;;;;;;20.83;4.85;;;;;;;9.93;80.32;100523.97;693779;28;925;-51
2021/05/21 00:54:20;;;;;;;21.70;5.00;;;;;;;9.94;80.50;100510.75;693939;28;970;-48
2021/05/21 00:54:41;;;;;;;21.67;4.65;;;;;;;9.97;79.80;100499.22;693839;28;887;-48
2021/05/21 00:55:01;;;;;;;20.60;4.50;;;;;;;9.95;80.09;100506.34;693875;28;903;-49
2021/05/21 00:55:30;;;;;;;22.07;4.60;;;;;;;9.93;80.55;100497.66;693610;28;1989;-47
2021/05/21 00:55:53;;;;;;;22.65;4.78;;;;;;;9.91;80.59;100503.00;693898;28;879;-48
2021/05/21 00:56:13;;;;;;;23.00;4.88;;;;;;;9.90;81.09;100503.91;693946;28;1018;-48
2021/05/21 00:56:36;;;;;;;26.20;5.73;;;;;;;9.93;80.44;100505.53;693846;28;1010;-49
2021/05/21 00:56:59;;;;;;;24.25;5.72;;;;;;;9.93;80.39;100508.19;693883;28;919;-49
2021/05/21 00:57:20;;;;;;;18.80;4.45;;;;;;;9.90;81.02;100501.25;693737;28;1019;-49
2021/05/21 00:57:43;;;;;;;23.23;4.80;;;;;;;9.93;81.31;100502.91;693884;28;812;-49
2021/05/21 00:58:04;;;;;;;22.88;4.72;;;;;;;9.93;80.44;100511.66;693927;28;800;-50
2021/05/21 00:58:25;;;;;;;26.13;5.50;;;;;;;9.96;80.68;100501.00;693540;28;787;-47
2021/05/21 00:58:45;;;;;;;24.75;4.63;;;;;;;9.96;79.91;100503.63;693706;28;926;-47
2021/05/21 00:59:06;;;;;;;24.42;4.45;;;;;;;9.97;80.23;100510.59;693767;28;872;-48
2021/05/21 00:59:29;;;;;;;20.03;4.80;;;;;;;9.96;80.77;100508.91;693862;28;931;-48
2021/05/21 00:59:50;;;;;;;21.25;4.60;;;;;;;9.96;81.15;100515.94;691010;28;1011;-51
2021/05/21 01:00:11;;;;;;;22.50;4.65;;;;;;;10.02;79.43;100510.41;691119;28;801;-47
2021/05/21 01:00:31;;;;;;;23.65;5.25;;;;;;;10.05;79.78;100505.00;691203;28;895;-46
2021/05/21 01:00:53;;;;;;;25.17;5.00;;;;;;;10.03;79.04;100508.63;691060;28;847;-47
2021/05/21 01:01:13;;;;;;;23.10;4.90;;;;;;;10.04;79.24;100507.69;691045;28;1495;-48
2021/05/21 01:01:34;;;;;;;21.42;4.95;;;;;;;9.99;79.49;100513.19;693599;28;1277;-48
2021/05/21 01:01:55;;;;;;;21.60;4.85;;;;;;;9.99;78.80;100508.75;693755;28;859;-49
2021/05/21 01:02:16;;;;;;;20.92;4.78;;;;;;;10.05;78.44;100501.50;693625;28;1567;-47
2021/05/21 01:02:39;;;;;;;23.47;5.07;;;;;;;10.05;78.91;100502.38;693790;28;873;-50
2021/05/21 01:03:00;;;;;;;20.95;4.40;;;;;;;10.06;79.27;100497.97;693834;28;895;-50
2021/05/21 01:03:20;;;;;;;21.70;4.40;;;;;;;10.02;79.76;100514.81;693565;28;887;-47
2021/05/21 01:03:41;;;;;;;19.98;4.30;;;;;;;9.97;78.86;100505.31;693581;28;1038;-49
2021/05/21 01:04:02;;;;;;;18.42;4.32;;;;;;;10.02;78.90;100502.50;693687;28;930;-49
2021/05/21 01:04:22;;;;;;;19.17;4.75;;;;;;;10.03;79.34;100498.09;693694;28;1034;-47
2021/05/21 01:04:58;;;;;;;21.03;4.60;;;;;;;10.03;79.64;100506.84;693530;28;1293;-48
2021/05/21 01:05:18;;;;;;;19.02;4.57;;;;;;;10.01;79.38;100490.25;693699;28;1376;-48
2021/05/21 01:05:38;;;;;;;18.20;4.40;;;;;;;9.99;79.31;100481.59;693806;28;966;-48
2021/05/21 01:05:58;;;;;;;21.77;4.50;;;;;;;9.99;79.82;100492.97;693812;28;793;-49
2021/05/21 01:06:21;;;;;;;26.10;5.15;;;;;;;10.01;79.28;100499.94;693876;28;998;-48
2021/05/21 01:06:42;;;;;;;22.27;4.35;;;;;;;9.97;79.19;100497.44;693851;28;907;-48
2021/05/21 01:07:06;;;;;;;21.87;4.57;;;;;;;9.99;79.05;100490.34;693761;28;987;-47
2021/05/21 01:07:26;;;;;;;21.10;4.90;;;;;;;9.99;79.06;100487.69;693352;28;1535;-49
2021/05/21 01:07:47;;;;;;;19.87;4.83;;;;;;;9.96;78.54;100485.19;693597;28;1463;-51
2021/05/21 01:08:07;;;;;;;21.40;4.67;;;;;;;9.96;78.35;100479.94;693769;28;1015;-47
2021/05/21 01:08:27;;;;;;;19.23;4.23;;;;;;;9.96;79.05;100477.31;693388;28;905;-49
2021/05/21 01:08:50;;;;;;;22.37;4.37;;;;;;;9.94;79.18;100484.44;693837;28;1006;-47
2021/05/21 01:09:11;;;;;;;24.73;4.60;;;;;;;9.93;79.03;100485.34;693725;28;851;-47
2021/05/21 01:09:31;;;;;;;21.20;5.00;;;;;;;9.98;78.67;100480.72;693845;28;833;-46
2021/05/21 01:09:51;;;;;;;19.73;4.83;;;;;;;9.94;78.82;100473.91;693914;28;847;-46
2021/05/21 01:10:12;;;;;;;19.50;4.60;;;;;;;9.94;79.07;100488.81;693491;28;1523;-47
2021/05/21 01:10:33;;;;;;;19.52;4.38;;;;;;;9.90;78.41;100482.84;693862;28;1211;-48
2021/05/21 01:10:53;;;;;;;19.27;4.80;;;;;;;9.92;78.41;100483.63;693994;28;980;-51
2021/05/21 01:11:14;;;;;;;20.23;4.90;;;;;;;9.90;78.74;100484.63;693806;28;847;-47
2021/05/21 01:11:34;;;;;;;21.95;4.93;;;;;;;9.86;78.31;100486.53;693951;28;887;-46
2021/05/21 01:11:57;;;;;;;19.93;4.50;;;;;;;9.89;78.26;100477.66;693820;28;843;-48
2021/05/21 01:12:17;;;;;;;19.40;4.78;;;;;;;9.88;78.48;100481.22;693745;28;863;-47
2021/05/21 01:12:38;;;;;;;21.52;4.60;;;;;;;9.85;78.28;100484.84;693800;28;820;-46
2021/05/21 01:13:02;;;;;;;26.05;4.75;;;;;;;9.88;78.71;100484.69;693733;28;1503;-47
2021/05/21 01:13:22;;;;;;;24.90;4.70;;;;;;;9.86;78.59;100476.00;693704;28;1019;-49
2021/05/21 01:13:42;;;;;;;21.40;4.55;;;;;;;9.89;78.21;100480.28;693826;28;947;-48
2021/05/21 01:14:03;;;;;;;21.43;4.80;;;;;;;9.90;78.27;100472.31;693779;28;1348;-47
2021/05/21 01:14:23;;;;;;;20.38;4.80;;;;;;;9.86;78.51;100481.28;693768;28;1094;-48
2021/05/21 01:14:52;;;;;;;20.37;4.63;;;;;;;9.92;77.10;100480.16;693750;28;1014;-47
2021/05/21 01:15:13;;;;;;;20.35;4.35;;;;;;;9.91;77.40;100481.94;693492;28;1307;-48
2021/05/21 01:15:36;;;;;;;19.80;4.53;;;;;;;9.90;77.82;100480.19;693426;28;1894;-47
2021/05/21 01:15:57;;;;;;;17.77;4.05;;;;;;;9.89;78.02;100475.88;693746;28;819;-48
2021/05/21 01:16:17;;;;;;;21.17;4.50;;;;;;;9.85;78.53;100463.78;693488;28;840;-47
2021/05/21 01:16:37;;;;;;;21.07;4.60;;;;;;;9.84;78.91;100469.97;693603;28;1030;-47
2021/05/21 01:16:58;;;;;;;21.13;4.40;;;;;;;9.81;79.58;100472.75;693271;28;1356;-47
2021/05/21 01:17:20;;;;;;;22.17;4.75;;;;;;;9.83;79.11;100467.38;693670;28;1015;-46
2021/05/21 01:17:40;;;;;;;20.92;4.53;;;;;;;9.78;78.81;100459.72;693854;28;828;-50
2021/05/21 01:18:10;;;;;;;21.17;4.50;;;;;;;9.83;78.76;100468.25;693786;28;1065;-47
2021/05/21 01:18:31;;;;;;;22.35;4.57;;;;;;;9.87;78.89;100466.31;693264;28;1042;-48
2021/05/21 01:18:51;;;;;;;22.77;4.43;;;;;;;9.84;78.62;100475.25;693779;28;1145;-47
2021/05/21 01:19:11;;;;;;;22.90;4.97;;;;;;;9.81;78.92;100471.88;693736;28;938;-49
2021/05/21 01:19:31;;;;;;;21.45;4.78;;;;;;;9.82;78.81;100469.16;693798;28;919;-47
2021/05/21 01:19:55;;;;;;;19.80;4.43;;;;;;;9.83;78.17;100470.03;693872;28;904;-49
2021/05/21 01:20:15;;;;;;;18.55;5.03;;;;;;;9.84;78.20;100462.06;693657;28;1518;-48
2021/05/21 01:20:36;;;;;;;19.88;4.35;;;;;;;9.86;77.88;100465.47;693737;28;1004;-47
2021/05/21 01:20:57;;;;;;;21.48;4.55;;;;;;;9.84;78.12;100462.06;693805;28;804;-47
2021/05/21 01:21:17;;;;;;;21.30;4.63;;;;;;;9.87;78.33;100467.19;693695;28;1030;-46
2021/05/21 01:21:38;;;;;;;19.77;4.40;;;;;;;9.85;78.64;100471.66;693847;28;856;-46
2021/05/21 01:21:58;;;;;;;21.42;4.55;;;;;;;9.82;79.10;100463.06;693780;28;869;-49
2021/05/21 01:22:19;;;;;;;22.23;4.80;;;;;;;9.81;79.39;100462.22;693896;28;938;-47
2021/05/21 01:22:40;;;;;;;18.27;3.97;;;;;;;9.82;79.29;100458.66;693635;28;967;-49
2021/05/21 01:23:01;;;;;;;21.33;4.93;;;;;;;9.85;78.97;100458.50;693914;28;824;-49
2021/05/21 01:23:25;;;;;;;21.42;4.80;;;;;;;9.85;79.18;100462.94;693591;28;1432;-47
2021/05/21 01:23:46;;;;;;;21.30;4.43;;;;;;;9.81;79.33;100456.94;693409;28;1511;-46
2021/05/21 01:24:07;;;;;;;22.93;4.53;;;;;;;9.78;79.10;100459.72;693696;28;1542;-46
2021/05/21 01:24:28;;;;;;;21.80;5.00;;;;;;;9.82;78.18;100461.28;693709;28;1060;-50
2021/05/21 01:24:48;;;;;;;20.87;5.03;;;;;;;9.88;78.08;100463.66;693711;28;911;-47
2021/05/21 01:25:09;;;;;;;21.67;4.57;;;;;;;9.84;78.60;100451.53;693758;28;1226;-50
2021/05/21 01:25:30;;;;;;;24.00;4.82;;;;;;;9.84;78.20;100451.53;693656;28;1051;-47
2021/05/21 01:25:51;;;;;;;19.73;4.85;;;;;;;9.85;78.02;100452.41;693842;28;875;-47
2021/05/21 01:26:13;;;;;;;20.70;4.78;;;;;;;9.84;78.33;100453.28;693906;28;958;-47
2021/05/21 01:26:34;;;;;;;20.02;4.35;;;;;;;9.84;77.99;100451.53;693719;28;1083;-48
2021/05/21 01:26:57;;;;;;;20.88;5.20;;;;;;;9.81;77.83;100449.06;693731;28;922;-46
2021/05/21 01:27:18;;;;;;;20.33;4.90;;;;;;;9.81;78.61;100451.69;693658;28;959;-47
2021/05/21 01:27:38;;;;;;;23.98;4.95;;;;;;;9.80;78.89;100449.94;696316;28;875;-47
2021/05/21 01:27:59;;;;;;;22.77;4.97;;;;;;;9.86;77.96;100448.84;696321;28;854;-46
2021/05/21 01:28:20;;;;;;;24.35;4.80;;;;;;;9.85;78.43;100450.63;696272;28;924;-47
2021/05/21 01:28:41;;;;;;;22.17;4.83;;;;;;;9.85;78.53;100447.13;695887;28;835;-46
2021/05/21 01:29:02;;;;;;;25.83;5.10;;;;;;;9.81;78.82;100442.94;694576;28;1579;-46
2021/05/21 01:29:22;;;;;;;25.17;5.30;;;;;;;9.78;79.34;100454.44;695934;28;868;-47
2021/05/21 01:29:42;;;;;;;22.53;5.50;;;;;;;9.76;79.50;100448.38;693877;28;868;-46
2021/05/21 01:30:05;;;;;;;27.95;5.40;;;;;;;9.73;79.16;100446.72;693734;28;891;-47
2021/05/21 01:30:26;;;;;;;26.77;5.10;;;;;;;9.70;79.58;100432.84;693707;28;1186;-47
2021/05/21 01:30:47;;;;;;;22.98;4.80;;;;;;;9.71;79.38;100445.13;693430;28;1548;-47
2021/05/21 01:31:08;;;;;;;24.02;4.75;;;;;;;9.73;79.33;100438.00;693891;28;1038;-46
2021/05/21 01:31:46;;;;;;;23.00;4.80;;;;;;;9.73;79.38;100441.47;693695;28;1204;-50
2021/05/21 01:32:08;;;;;;;19.17;4.82;;;;;;;9.68;79.54;100434.72;693799;28;916;-48
2021/05/21 01:32:29;;;;;;;20.95;5.05;;;;;;;9.67;79.32;100447.03;693850;28;1002;-47
2021/05/21 01:32:49;;;;;;;24.07;4.63;;;;;;;9.69;79.49;100436.41;693710;28;943;-49
2021/05/21 01:33:11;;;;;;;26.50;4.97;;;;;;;9.68;79.64;100439.97;693745;28;821;-47
2021/05/21 01:33:31;;;;;;;21.50;4.75;;;;;;;9.79;78.72;100432.47;693568;28;1506;-47
2021/05/21 01:33:54;;;;;;;21.57;4.50;;;;;;;9.84;78.11;100440.13;693827;28;927;-47
2021/05/21 01:34:15;;;;;;;21.95;4.63;;;;;;;9.86;78.41;100427.78;693868;28;895;-47
2021/05/21 01:34:38;;;;;;;21.73;5.23;;;;;;;9.89;78.48;100433.75;693656;28;983;-48
2021/05/21 01:35:02;;;;;;;22.58;4.85;;;;;;;9.89;77.97;100433.75;693747;28;909;-47
2021/05/21 01:35:22;;;;;;;26.80;5.43;;;;;;;9.86;78.49;100430.41;693378;28;1965;-48
2021/05/21 01:35:43;;;;;;;24.67;5.40;;;;;;;9.79;78.75;100435.09;693872;28;861;-47
2021/05/21 01:36:04;;;;;;;24.58;5.40;;;;;;;9.75;79.04;100429.09;693818;28;862;-46
2021/05/21 01:36:24;;;;;;;24.50;4.97;;;;;;;9.77;78.83;100443.97;693507;28;954;-46
2021/05/21 01:36:47;;;;;;;24.05;4.95;;;;;;;9.75;78.36;100430.88;693613;28;1034;-45
2021/05/21 01:37:20;;;;;;;25.73;5.68;;;;;;;9.80;78.66;100433.31;693508;28;930;-47
2021/05/21 01:37:43;;;;;;;26.55;5.30;;;;;;;9.83;77.50;100427.91;690894;28;844;-46
2021/05/21 01:38:04;;;;;;;23.25;5.40;;;;;;;9.86;77.31;100436.53;690873;28;948;-46
2021/05/21 01:38:24;;;;;;;21.30;4.88;;;;;;;9.90;77.00;100424.91;690767;28;883;-47
2021/05/21 01:39:06;;;;;;;23.73;5.10;;;;;;;9.88;77.18;100428.56;690901;28;1168;-46
2021/05/21 01:39:36;;;;;;;22.77;5.07;;;;;;;9.87;77.98;100425.06;691035;28;902;-46
2021/05/21 01:39:57;;;;;;;21.45;4.95;;;;;;;9.88;77.29;100418.91;690958;28;923;-45
2021/05/21 01:40:17;;;;;;;22.08;4.72;;;;;;;9.83;78.09;100423.50;691075;28;847;-46
2021/05/21 01:40:38;;;;;;;22.27;4.70;;;;;;;9.81;78.40;100420.09;691069;28;820;-46
2021/05/21 01:40:59;;;;;;;26.57;5.40;;;;;;;9.79;78.47;100421.06;691035;28;872;-46
2021/05/21 01:41:20;;;;;;;28.27;5.38;;;;;;;9.76;78.75;100422.06;692820;28;1594;-46
2021/05/21 01:41:42;;;;;;;27.70;5.13;;;;;;;9.74;78.15;100418.66;693844;28;947;-47
2021/05/21 01:42:02;;;;;;;26.92;5.43;;;;;;;9.76;78.27;100419.44;693718;28;820;-46
2021/05/21 01:42:22;;;;;;;26.13;5.20;;;;;;;9.77;77.95;100423.75;693504;28;1539;-46
2021/05/21 01:42:43;;;;;;;26.33;5.30;;;;;;;9.86;77.77;100422.50;693442;28;1209;-46